Time;durP1;ratioP1;P1;durP2;ratioP2;P2;SDS_P1;SDS_P2;PMS_P1;PMS_P2;Temp;Humidity;BMP_temperature;BMP_pressure;BME280_temperature;BME280_humidity;BME280_pressure;Samples;Min_cycle;Max_cycle;Signal;HPM_P1;HPM_P2
2021/01/17 00:27:24;;;;;;;38.47;9.47;;;;;;;-18.27;58.84;99547.25;1722037;81;21436;-49
2021/01/17 00:29:51;;;;;;;36.50;9.93;;;;;;;-18.27;58.84;99547.25;1730821;82;21893;-49
2021/01/17 00:32:18;;;;;;;34.13;11.00;;;;;;;-18.25;58.92;99547.34;1730828;81;21862;-47
2021/01/17 00:34:46;;;;;;;41.47;9.33;;;;;;;-18.28;58.74;99556.14;1719313;81;21458;-48
2021/01/17 00:37:18;;;;;;;35.97;9.47;;;;;;;-18.28;58.74;99556.14;1752870;80;21541;-53
2021/01/17 00:39:45;;;;;;;42.70;10.27;;;;;;;-18.28;58.79;99557.02;1729267;82;21508;-52
2021/01/17 00:42:14;;;;;;;39.27;10.37;;;;;;;-18.23;58.92;99559.89;1715829;81;21552;-48
2021/01/17 00:44:42;;;;;;;43.90;13.07;;;;;;;-18.23;58.92;99559.89;1750531;80;21512;-49
2021/01/17 00:47:13;;;;;;;48.87;13.43;;;;;;;-18.24;58.90;99560.68;1751234;81;21399;-51
2021/01/17 00:49:45;;;;;;;58.13;12.90;;;;;;;-18.25;59.00;99567.50;1719003;82;21745;-48
2021/01/17 00:52:18;;;;;;;45.17;12.83;;;;;;;-18.22;59.02;99564.23;1727478;82;21433;-47
2021/01/17 00:54:46;;;;;;;60.73;14.13;;;;;;;-18.20;59.10;99565.23;1726494;81;21531;-47
2021/01/17 00:57:14;;;;;;;48.50;13.17;;;;;;;-18.16;59.13;99563.31;1798722;79;22159;-51
2021/01/17 00:59:42;;;;;;;48.87;13.97;;;;;;;-18.14;58.92;99564.30;1729994;80;21374;-48
2021/01/17 01:02:09;;;;;;;44.80;12.50;;;;;;;-18.20;58.89;99573.79;1762070;79;21845;-50
2021/01/17 01:04:36;;;;;;;53.90;14.13;;;;;;;-18.21;59.00;99564.73;1763086;80;22129;-50
2021/01/17 01:07:03;;;;;;;58.30;15.03;;;;;;;-18.21;59.00;99564.73;1792069;79;21642;-46
2021/01/17 01:09:31;;;;;;;59.63;15.30;;;;;;;-18.16;58.96;99573.59;1798200;78;21568;-49
2021/01/17 01:12:00;;;;;;;54.13;13.83;;;;;;;-18.13;58.87;99565.69;1762923;80;21864;-47
2021/01/17 01:14:27;;;;;;;56.03;14.63;;;;;;;-18.11;58.79;99569.21;1794995;79;21490;-51
2021/01/17 01:16:55;;;;;;;61.57;14.43;;;;;;;-18.14;58.79;99568.16;1762264;79;21572;-48
2021/01/17 01:19:22;;;;;;;49.20;12.33;;;;;;;-18.14;58.79;99568.16;1724770;80;21489;-52
2021/01/17 01:21:50;;;;;;;63.37;16.53;;;;;;;-18.13;58.94;99572.11;1797819;78;21402;-49
2021/01/17 01:24:17;;;;;;;43.27;13.00;;;;;;;-18.13;58.94;99572.11;1760771;80;22437;-47
2021/01/17 01:26:45;;;;;;;42.20;12.90;;;;;;;-18.12;59.01;99573.00;1737851;80;21542;-48
2021/01/17 01:29:12;;;;;;;51.30;12.47;;;;;;;-18.08;58.97;99578.80;1721347;80;21899;-48
2021/01/17 01:31:42;;;;;;;52.20;13.57;;;;;;;-18.06;59.01;99573.36;1760700;80;21489;-48
2021/01/17 01:34:11;;;;;;;47.97;13.27;;;;;;;-18.00;58.94;99572.83;1796578;77;21515;-49
2021/01/17 01:36:39;;;;;;;42.67;12.40;;;;;;;-17.95;58.58;99569.77;1795169;79;21744;-48
2021/01/17 01:39:06;;;;;;;54.70;14.30;;;;;;;-17.95;58.58;99569.77;1790709;79;21872;-49
2021/01/17 01:41:36;;;;;;;44.90;13.23;;;;;;;-17.96;58.54;99561.56;1795123;78;21472;-51
2021/01/17 01:44:04;;;;;;;52.40;14.77;;;;;;;-17.98;58.30;99559.69;1794923;78;21389;-47
2021/01/17 01:46:31;;;;;;;51.37;15.43;;;;;;;-17.97;58.52;99559.78;1798069;77;22497;-52
2021/01/17 01:49:00;;;;;;;53.07;12.30;;;;;;;-17.96;58.21;99558.11;1793519;78;21504;-51
2021/01/17 01:51:27;;;;;;;57.53;15.27;;;;;;;-17.96;58.21;99558.11;1795102;78;21950;-49
2021/01/17 01:53:56;;;;;;;46.83;13.63;;;;;;;-18.01;58.29;99559.49;1798502;79;21595;-47
2021/01/17 01:56:23;;;;;;;47.77;13.60;;;;;;;-18.06;58.38;99552.41;1806242;78;21904;-50
2021/01/17 01:58:52;;;;;;;52.23;14.80;;;;;;;-18.11;58.04;99542.63;1804941;78;21555;-51
2021/01/17 02:01:22;;;;;;;46.23;14.70;;;;;;;-18.11;58.04;99542.63;1803067;78;21490;-49
2021/01/17 02:03:52;;;;;;;48.60;13.13;;;;;;;-18.14;57.90;99552.74;1805003;78;21678;-49
2021/01/17 02:06:21;;;;;;;54.17;15.10;;;;;;;-18.20;57.91;99558.37;1803037;78;21910;-49
2021/01/17 02:09:26;;;;;;;45.70;14.17;;;;;;;-18.28;57.86;99559.98;1802740;78;21956;-52
2021/01/17 02:12:22;;;;;;;;;;;;;;;-18.34;57.81;99556.66;1799587;78;21628;-46
2021/01/17 02:15:30;;;;;;;38.07;8.60;;;;;;;-18.59;57.87;99558.16;1801148;78;20376;-53
2021/01/17 02:18:00;;;;;;;29.20;9.00;;;;;;;-18.65;57.80;99557.78;1804415;78;22475;-47
2021/01/17 02:20:28;;;;;;;35.50;10.57;;;;;;;-18.65;57.80;99557.78;1803875;78;21617;-50
2021/01/17 02:23:16;;;;;;;39.87;11.30;;;;;;;-18.63;57.78;99556.60;1764404;80;21937;-54
2021/01/17 02:25:43;;;;;;;44.50;10.70;;;;;;;-18.55;57.55;99548.55;1736119;80;21565;-55
2021/01/17 02:28:18;;;;;;;42.60;11.13;;;;;;;-18.55;57.55;99548.55;1749538;81;21506;-51
2021/01/17 02:30:49;;;;;;;42.00;10.77;;;;;;;-18.60;57.33;99556.38;1741488;79;21653;-53
2021/01/17 02:33:23;;;;;;;42.07;12.23;;;;;;;-18.66;57.35;99558.96;1721481;81;21510;-55
2021/01/17 02:36:00;;;;;;;;;;;;;;;-18.71;57.44;99556.09;1747321;81;21631;-54
2021/01/17 02:38:40;;;;;;;30.13;8.53;;;;;;;-18.65;57.51;99565.48;1743054;81;20304;-56
2021/01/17 02:41:31;;;;;;;33.37;8.07;;;;;;;-18.60;57.71;99567.92;1743182;81;21510;-55
2021/01/17 02:43:58;;;;;;;26.50;5.73;;;;;;;-18.56;57.77;99571.59;1768767;80;21847;-54
2021/01/17 02:46:25;;;;;;;42.13;10.37;;;;;;;-18.56;57.81;99568.59;1734268;80;21345;-54
2021/01/17 02:48:53;;;;;;;40.90;11.03;;;;;;;-18.52;57.57;99559.37;1744723;81;21486;-50
2021/01/17 02:51:20;;;;;;;33.50;10.90;;;;;;;-18.53;57.27;99559.77;1741394;80;21312;-50
2021/01/17 02:53:53;;;;;;;36.77;11.77;;;;;;;-18.56;57.20;99560.03;1747167;81;21447;-50
2021/01/17 02:56:20;;;;;;;46.87;11.40;;;;;;;-18.62;57.16;99565.66;1743234;80;22809;-51
2021/01/17 02:58:50;;;;;;;45.83;11.57;;;;;;;-18.64;57.22;99559.56;1794672;78;22042;-51
2021/01/17 03:01:21;;;;;;;37.73;11.07;;;;;;;-18.62;57.10;99551.53;1798910;77;21269;-50
2021/01/17 03:03:49;;;;;;;40.47;10.23;;;;;;;-18.73;56.62;99556.81;1794634;78;21699;-51
2021/01/17 03:06:16;;;;;;;36.00;10.17;;;;;;;-18.73;56.62;99556.81;1799288;79;21516;-51
2021/01/17 03:08:43;;;;;;;33.37;11.23;;;;;;;-18.87;56.75;99555.92;1761238;80;21978;-50
2021/01/17 03:11:11;;;;;;;40.87;12.17;;;;;;;-18.95;56.97;99554.16;1772698;79;21463;-51
2021/01/17 03:13:38;;;;;;;36.97;10.40;;;;;;;-18.96;56.91;99547.64;1796788;78;21508;-52
2021/01/17 03:16:06;;;;;;;40.97;11.43;;;;;;;-18.98;56.92;99554.38;1760287;80;21980;-53
2021/01/17 03:18:33;;;;;;;42.10;11.23;;;;;;;-18.96;56.94;99550.20;1794782;78;21274;-53
2021/01/17 03:21:00;;;;;;;39.07;10.53;;;;;;;-18.93;57.01;99555.55;1796980;79;21421;-50
2021/01/17 03:23:28;;;;;;;52.07;11.30;;;;;;;-18.90;57.02;99554.08;1733883;80;21437;-50
2021/01/17 03:25:55;;;;;;;37.23;10.07;;;;;;;-18.88;56.98;99554.17;1731071;80;21272;-50
2021/01/17 03:28:23;;;;;;;37.63;10.50;;;;;;;-18.88;56.76;99554.17;1797308;78;21319;-50
2021/01/17 03:30:50;;;;;;;39.37;10.60;;;;;;;-18.98;56.69;99558.23;1798112;77;21390;-50
2021/01/17 03:33:17;;;;;;;40.20;10.70;;;;;;;-19.08;56.78;99550.73;1798662;79;21830;-50
2021/01/17 03:35:45;;;;;;;44.90;12.40;;;;;;;-19.12;56.93;99550.03;1731411;80;21450;-52
2021/01/17 03:38:12;;;;;;;30.53;9.53;;;;;;;-19.16;56.86;99544.23;1736994;81;21381;-52
2021/01/17 03:40:39;;;;;;;41.33;11.13;;;;;;;-19.23;56.78;99547.69;1729012;81;21853;-53
2021/01/17 03:43:07;;;;;;;41.00;12.07;;;;;;;-19.33;56.92;99539.30;1761316;80;21358;-52
2021/01/17 03:45:34;;;;;;;38.80;10.13;;;;;;;-19.37;57.16;99544.61;1757905;79;22013;-52
2021/01/17 03:48:01;;;;;;;35.77;11.20;;;;;;;-19.32;57.15;99540.69;1762549;80;21445;-52
2021/01/17 03:50:29;;;;;;;40.77;10.73;;;;;;;-19.29;57.14;99536.13;1797170;77;21382;-50
2021/01/17 03:52:56;;;;;;;39.50;9.90;;;;;;;-19.29;57.03;99533.17;1797024;77;21367;-50
2021/01/17 03:55:23;;;;;;;31.60;8.40;;;;;;;-19.33;57.11;99527.76;1794170;78;21332;-52
2021/01/17 03:57:50;;;;;;;33.47;10.57;;;;;;;-19.38;57.16;99530.40;1803980;78;21405;-53
2021/01/17 04:00:19;;;;;;;39.90;10.90;;;;;;;-19.41;57.21;99527.66;1737584;80;21371;-50
2021/01/17 04:02:46;;;;;;;34.57;9.53;;;;;;;-19.44;57.27;99525.77;1742990;81;21296;-51
2021/01/17 04:05:14;;;;;;;39.53;7.73;;;;;;;-19.49;57.27;99525.03;1739090;80;21615;-49
2021/01/17 04:07:41;;;;;;;30.30;9.87;;;;;;;-19.53;57.47;99526.49;1747467;80;21438;-49
2021/01/17 04:13:01;;;;;;;42.40;9.53;;;;;;;-19.33;57.96;99526.48;1749310;78;22592;-50
2021/01/17 04:15:29;;;;;;;34.37;8.50;;;;;;;-19.31;57.96;99533.48;1717122;82;21199;-51
2021/01/17 04:17:56;;;;;;;39.37;11.13;;;;;;;-19.22;57.92;99534.05;1721276;80;22317;-49
2021/01/17 04:20:24;;;;;;;39.90;9.70;;;;;;;-19.15;58.02;99531.90;1718616;80;21622;-51
2021/01/17 04:22:51;;;;;;;41.30;11.17;;;;;;;-19.06;57.97;99528.24;1720828;80;21932;-51
2021/01/17 04:25:19;;;;;;;42.00;9.60;;;;;;;-19.00;57.77;99529.02;1720516;82;21807;-48
2021/01/17 04:27:46;;;;;;;42.20;10.93;;;;;;;-19.01;57.79;99537.10;1723585;81;21467;-51
2021/01/17 04:30:16;;;;;;;42.30;11.83;;;;;;;-18.99;57.65;99529.52;1721848;81;21489;-50
2021/01/17 04:32:43;;;;;;;35.60;10.57;;;;;;;-19.01;57.41;99532.37;1726754;80;21410;-48
2021/01/17 04:35:13;;;;;;;41.83;10.77;;;;;;;-19.08;57.34;99533.66;1721034;82;21896;-48
2021/01/17 04:37:40;;;;;;;34.60;9.40;;;;;;;-19.10;57.47;99543.33;1721207;81;21343;-51
2021/01/17 04:40:08;;;;;;;42.23;12.27;;;;;;;-19.07;57.67;99541.86;1726059;81;22251;-49
2021/01/17 04:42:38;;;;;;;43.07;11.40;;;;;;;-19.02;57.70;99544.70;1722526;82;21508;-49
2021/01/17 04:45:09;;;;;;;41.37;10.93;;;;;;;-19.01;57.62;99547.76;1725650;80;21835;-48
2021/01/17 04:47:37;;;;;;;49.30;10.33;;;;;;;-19.00;57.68;99545.30;1733123;80;21409;-48
2021/01/17 04:50:06;;;;;;;43.97;12.03;;;;;;;-18.97;57.44;99547.18;1716898;80;21356;-49
2021/01/17 04:52:42;;;;;;;37.00;10.40;;;;;;;-18.97;57.26;99544.22;1727015;82;21422;-49
2021/01/17 04:55:10;;;;;;;47.17;11.57;;;;;;;-19.05;57.09;99541.96;1726765;80;22072;-48
2021/01/17 04:58:18;;;;;;;43.47;12.30;;;;;;;-19.10;57.03;99542.05;1723933;82;21843;-49
2021/01/17 05:00:57;;;;;;;39.80;10.60;;;;;;;-19.11;57.13;99541.55;1734039;82;21714;-50
2021/01/17 05:03:31;;;;;;;39.13;13.37;;;;;;;-19.12;57.09;99539.77;1720054;80;21488;-49
2021/01/17 05:06:13;;;;;;;25.70;6.90;;;;;;;-19.17;57.06;99538.59;1666887;82;22372;-49
2021/01/17 05:08:44;;;;;;;36.50;10.23;;;;;;;-19.25;57.16;99545.41;1729773;82;21209;-48
2021/01/17 05:11:38;;;;;;;36.37;10.57;;;;;;;-19.33;57.35;99537.63;1725018;81;21421;-52
2021/01/17 05:14:12;;;;;;;44.97;12.60;;;;;;;-19.31;57.62;99543.75;1723050;80;21521;-49
2021/01/17 05:16:44;;;;;;;22.45;6.20;;;;;;;-19.25;57.73;99536.83;1728398;80;21272;-50
2021/01/17 05:19:14;;;;;;;31.67;8.93;;;;;;;-19.20;57.61;99529.91;1729189;80;21614;-50
2021/01/17 05:21:46;;;;;;;34.00;8.30;;;;;;;-19.21;57.39;99525.57;1729417;80;22359;-49
2021/01/17 05:24:14;;;;;;;37.40;10.73;;;;;;;-19.26;57.34;99524.80;1723903;82;21325;-51
2021/01/17 05:26:56;;;;;;;34.13;9.07;;;;;;;-19.35;57.49;99534.06;1728923;80;21429;-48
2021/01/17 05:29:25;;;;;;;40.97;9.70;;;;;;;-19.36;57.53;99532.67;1718883;81;21784;-48
2021/01/17 05:32:00;;;;;;;44.97;10.53;;;;;;;-19.33;57.47;99544.42;1730731;80;21607;-50
2021/01/17 05:34:28;;;;;;;40.73;10.37;;;;;;;-19.34;57.42;99548.66;1720296;80;21317;-51
2021/01/17 05:37:13;;;;;;;36.13;10.07;;;;;;;-19.35;57.69;99540.47;1730876;80;21879;-48
2021/01/17 05:39:57;;;;;;;33.20;9.53;;;;;;;-19.25;57.80;99545.41;1729980;82;21886;-49
2021/01/17 05:42:29;;;;;;;38.10;8.73;;;;;;;-19.15;57.63;99548.57;1725216;80;21539;-51
2021/01/17 05:45:00;;;;;;;37.37;9.77;;;;;;;-19.14;57.39;99541.38;1692284;83;22358;-49
2021/01/17 05:47:27;;;;;;;41.57;12.07;;;;;;;-19.17;57.34;99546.30;1728162;80;21481;-49
2021/01/17 05:50:00;;;;;;;39.80;9.20;;;;;;;-19.19;57.48;99544.91;1728498;81;21338;-49
2021/01/17 05:52:27;;;;;;;37.57;10.20;;;;;;;-19.18;57.46;99545.80;1725375;80;21430;-50
2021/01/17 05:54:55;;;;;;;36.53;9.87;;;;;;;-19.17;57.57;99549.75;1729683;82;21434;-49
2021/01/17 05:57:25;;;;;;;37.93;8.10;;;;;;;-19.10;57.65;99548.45;1728747;80;21366;-49
2021/01/17 05:59:53;;;;;;;35.07;9.30;;;;;;;-19.04;57.64;99548.45;1711679;82;21851;-50
2021/01/17 06:02:24;;;;;;;31.80;8.33;;;;;;;-18.97;57.51;99548.47;1726280;80;21304;-49
2021/01/17 06:04:59;;;;;;;26.70;8.87;;;;;;;-18.93;57.37;99555.16;1727777;80;21757;-51
2021/01/17 06:07:31;;;;;;;29.73;7.93;;;;;;;-18.93;57.33;99555.55;1725708;80;21375;-48
2021/01/17 06:10:04;;;;;;;33.47;8.10;;;;;;;-18.92;57.10;99548.34;1725511;81;21911;-49
2021/01/17 06:12:38;;;;;;;27.47;9.30;;;;;;;-19.02;56.92;99559.70;1725192;80;21456;-49
2021/01/17 06:15:09;;;;;;;34.47;9.53;;;;;;;-19.20;56.93;99554.67;1716340;82;21485;-50
2021/01/17 06:17:45;;;;;;;36.33;9.83;;;;;;;-19.31;57.14;99563.38;1727981;82;21336;-48
2021/01/17 06:20:20;;;;;;;40.10;8.90;;;;;;;-19.29;57.28;99561.77;1716355;80;21445;-49
2021/01/17 06:22:48;;;;;;;38.27;9.80;;;;;;;-19.24;57.27;99565.14;1714312;81;21338;-51
2021/01/17 06:25:15;;;;;;;32.33;8.23;;;;;;;-19.24;57.30;99572.84;1703669;82;22234;-48
2021/01/17 06:27:42;;;;;;;31.13;9.50;;;;;;;-19.17;57.47;99580.53;1729860;80;21417;-49
2021/01/17 06:30:19;;;;;;;26.27;7.90;;;;;;;-19.07;57.44;99580.73;1725174;81;21262;-50
2021/01/17 06:32:47;;;;;;;39.83;11.70;;;;;;;-19.05;57.43;99579.16;1722788;81;21823;-48
2021/01/17 06:35:14;;;;;;;32.50;8.83;;;;;;;-19.06;57.60;99580.83;1722138;80;21431;-48
2021/01/17 06:37:42;;;;;;;34.67;9.23;;;;;;;-19.01;57.79;99583.28;1719722;82;21430;-49
2021/01/17 06:40:11;;;;;;;33.83;8.63;;;;;;;-18.96;57.81;99586.12;1723626;81;21730;-50
2021/01/17 06:42:39;;;;;;;25.10;7.70;;;;;;;-18.94;57.85;99588.41;1718742;81;21444;-50
2021/01/17 06:45:12;;;;;;;32.23;8.13;;;;;;;-18.92;58.01;99590.29;1725115;81;22158;-49
2021/01/17 06:47:54;;;;;;;35.90;10.03;;;;;;;-18.85;58.03;99592.84;1823182;76;22671;-50
2021/01/17 06:50:22;;;;;;;;;;;;;;;-18.86;58.23;99594.52;1793704;77;21456;-50
2021/01/17 06:52:54;;;;;;;27.73;5.83;;;;;;;-18.76;58.58;99593.43;1792924;77;21390;-48
2021/01/17 06:55:21;;;;;;;35.17;7.50;;;;;;;-18.66;58.85;99588.48;1792970;78;21712;-50
2021/01/17 06:57:48;;;;;;;31.67;9.57;;;;;;;-18.52;58.99;99590.19;1794269;78;21338;-48
2021/01/17 07:00:17;;;;;;;37.23;9.37;;;;;;;-18.43;59.18;99580.09;1791704;77;21246;-49
2021/01/17 07:02:50;;;;;;;42.10;10.07;;;;;;;-18.34;59.20;99576.32;1790361;78;21616;-48
2021/01/17 07:05:34;;;;;;;36.98;10.53;;;;;;;-18.28;59.30;99574.12;1791915;77;21939;-49
2021/01/17 07:08:40;;;;;;;36.42;10.13;;;;;;;-18.19;59.45;99577.25;1762872;79;21525;-51
2021/01/17 07:11:35;;;;;;;50.43;11.43;;;;;;;-18.13;59.63;99583.67;1792843;77;20977;-51
2021/01/17 07:14:07;;;;;;;41.10;9.10;;;;;;;-18.00;60.06;99573.72;1790386;78;21818;-48
2021/01/17 07:16:35;;;;;;;42.90;10.07;;;;;;;-17.85;60.44;99566.03;1792757;78;21378;-49
2021/01/17 07:19:05;;;;;;;31.33;9.87;;;;;;;-17.68;60.95;99577.80;1795973;78;21436;-48
2021/01/17 07:21:35;;;;;;;48.90;14.97;;;;;;;-17.32;61.23;99573.89;1789618;77;22009;-49
2021/01/17 07:24:05;;;;;;;70.90;16.90;;;;;;;-17.16;61.42;99567.05;1790694;79;22047;-50
2021/01/17 07:27:10;;;;;;;66.47;16.23;;;;;;;-17.16;61.42;99567.05;1795367;78;21570;-50
2021/01/17 07:29:37;;;;;;;55.48;15.70;;;;;;;-17.01;61.59;99563.64;1791612;78;21894;-48
2021/01/17 07:32:10;;;;;;;54.90;16.70;;;;;;;-16.75;61.81;99563.81;1752437;79;21398;-51
2021/01/17 07:34:39;;;;;;;61.20;17.80;;;;;;;-16.75;61.81;99563.81;1753852;79;21577;-48
2021/01/17 07:37:07;;;;;;;68.67;18.93;;;;;;;-16.58;61.91;99563.41;1767336;77;21374;-51
2021/01/17 07:39:34;;;;;;;63.07;19.27;;;;;;;-16.47;61.76;99533.09;1787593;77;21646;-51
2021/01/17 07:42:02;;;;;;;76.43;20.40;;;;;;;-16.19;62.15;99551.81;1786585;77;21869;-52
2021/01/17 07:44:31;;;;;;;56.13;17.27;;;;;;;-16.19;62.15;99551.81;1781525;78;21882;-54
2021/01/17 07:47:06;;;;;;;70.40;20.37;;;;;;;-16.01;62.08;99551.90;1767535;78;21871;-50
2021/01/17 07:49:35;;;;;;;62.67;18.97;;;;;;;-15.94;62.14;99556.16;1743741;79;21792;-51
2021/01/17 07:52:02;;;;;;;63.40;19.10;;;;;;;-15.82;62.20;99552.91;1774087;78;21813;-50
2021/01/17 07:54:30;;;;;;;50.53;19.30;;;;;;;-15.70;62.20;99547.91;1774602;78;21797;-50
2021/01/17 07:56:57;;;;;;;60.33;18.50;;;;;;;-15.59;62.27;99551.53;1776344;78;22277;-50
2021/01/17 07:59:25;;;;;;;59.77;18.07;;;;;;;-15.48;62.39;99540.00;1773910;78;22120;-50
2021/01/17 08:01:54;;;;;;;69.03;20.17;;;;;;;-15.34;62.45;99544.58;1775337;78;21787;-51
2021/01/17 08:04:22;;;;;;;57.07;18.13;;;;;;;-15.22;62.43;99545.61;1776067;79;21793;-50
2021/01/17 08:06:49;;;;;;;52.67;17.13;;;;;;;-15.08;62.72;99536.83;1779260;78;22120;-51
2021/01/17 08:09:45;;;;;;;50.67;17.97;;;;;;;-14.96;62.75;99532.23;1775228;78;22701;-49
2021/01/17 08:12:32;;;;;;;60.53;18.63;;;;;;;-14.84;62.88;99534.13;1753795;78;21833;-51
2021/01/17 08:15:17;;;;;;;54.33;18.80;;;;;;;-14.61;63.04;99536.09;1816400;75;23341;-51
2021/01/17 08:17:45;;;;;;;60.03;17.40;;;;;;;-14.51;62.95;99541.70;1791596;77;21108;-51
2021/01/17 08:20:25;;;;;;;58.53;19.10;;;;;;;-14.37;62.94;99541.48;1791253;79;22275;-50
2021/01/17 08:23:04;;;;;;;58.07;18.87;;;;;;;-14.23;62.97;99535.66;1790419;79;22208;-51
2021/01/17 08:25:55;;;;;;;66.87;22.07;;;;;;;-14.08;62.83;99536.34;1789236;77;21470;-51
2021/01/17 08:28:36;;;;;;;63.33;22.57;;;;;;;-13.97;62.76;99539.02;1792339;77;21719;-52
2021/01/17 08:31:34;;;;;;;57.13;17.00;;;;;;;-13.82;62.62;99540.98;1786835;77;21217;-51
2021/01/17 08:34:08;;;;;;;65.93;22.10;;;;;;;-13.76;62.57;99542.05;1786691;77;21871;-51
2021/01/17 08:36:35;;;;;;;;;;;;;;;-13.69;62.79;99539.80;1792453;77;21166;-51
2021/01/17 08:39:03;;;;;;;36.37;10.90;;;;;;;-13.60;62.68;99535.02;1793399;78;20255;-51
2021/01/17 08:41:32;;;;;;;38.73;11.80;;;;;;;-13.51;62.54;99534.53;1781908;77;21517;-52
2021/01/17 08:43:59;;;;;;;43.40;12.90;;;;;;;-13.42;62.54;99535.81;1773860;79;21107;-52
2021/01/17 08:46:34;;;;;;;48.17;16.17;;;;;;;-13.35;62.42;99533.06;1770073;79;21785;-51
2021/01/17 08:49:03;;;;;;;42.20;13.10;;;;;;;-13.31;62.46;99535.39;1769557;79;21253;-51
2021/01/17 08:51:30;;;;;;;40.00;13.43;;;;;;;-13.24;62.38;99538.30;1765179;78;21480;-52
2021/01/17 08:54:25;;;;;;;44.07;15.43;;;;;;;-13.19;62.31;99539.80;1774402;78;21116;-50
2021/01/17 08:56:53;;;;;;;37.55;11.63;;;;;;;-13.13;62.24;99536.16;1773006;78;21123;-49
2021/01/17 08:59:34;;;;;;;32.17;11.00;;;;;;;-13.04;62.29;99530.03;1763398;79;22220;-52
2021/01/17 09:02:02;;;;;;;36.67;12.50;;;;;;;-12.93;62.39;99523.99;1769743;80;21123;-50
2021/01/17 09:04:29;;;;;;;34.00;12.37;;;;;;;-12.83;62.28;99520.92;1773399;79;21346;-52
2021/01/17 09:06:56;;;;;;;52.03;15.67;;;;;;;-12.74;62.16;99518.70;1771745;79;21135;-51
2021/01/17 09:09:24;;;;;;;29.73;11.13;;;;;;;-12.70;62.03;99512.83;1770410;80;21555;-52
2021/01/17 09:11:51;;;;;;;44.30;13.27;;;;;;;-12.68;62.10;99515.96;1769739;80;21153;-50
2021/01/17 09:14:26;;;;;;;37.13;13.23;;;;;;;-12.65;62.15;99511.28;1773577;78;21126;-51
2021/01/17 09:17:00;;;;;;;36.20;12.23;;;;;;;-12.60;62.18;99511.48;1775430;79;21093;-49
2021/01/17 09:19:32;;;;;;;34.48;9.28;;;;;;;-12.57;62.19;99508.98;1769839;80;21083;-50
2021/01/17 09:22:01;;;;;;;41.87;12.17;;;;;;;-12.50;62.09;99517.06;1773219;79;21099;-51
2021/01/17 09:24:30;;;;;;;29.43;11.43;;;;;;;-12.41;62.16;99513.52;1768381;79;21373;-50
2021/01/17 09:27:04;;;;;;;33.70;13.13;;;;;;;-12.33;62.12;99510.81;1769065;79;21176;-51
2021/01/17 09:29:38;;;;;;;31.93;11.67;;;;;;;-12.22;61.88;99505.14;1771688;80;21095;-50
2021/01/17 09:32:16;;;;;;;31.37;9.87;;;;;;;-12.12;61.96;99504.67;1775606;80;21103;-51
2021/01/17 09:34:45;;;;;;;36.83;11.77;;;;;;;-12.06;61.69;99507.48;1766737;79;21900;-51
2021/01/17 09:37:17;;;;;;;30.80;11.47;;;;;;;-12.02;61.54;99510.67;1765523;79;22243;-50
2021/01/17 09:39:50;;;;;;;35.93;13.40;;;;;;;-11.98;61.39;99507.34;1768534;79;21111;-50
2021/01/17 09:42:19;;;;;;;29.50;8.60;;;;;;;-11.97;61.20;99503.92;1776012;79;21190;-51
2021/01/17 09:44:54;;;;;;;29.53;9.37;;;;;;;-11.96;61.22;99496.61;1772794;79;21099;-51
2021/01/17 09:47:23;;;;;;;29.30;9.63;;;;;;;-11.93;61.42;99498.03;1772343;79;20969;-50
2021/01/17 09:49:50;;;;;;;31.77;11.60;;;;;;;-11.82;61.51;99490.64;1777594;79;21190;-50
2021/01/17 09:52:24;;;;;;;31.30;9.83;;;;;;;-11.74;61.35;99488.75;1768059;79;20979;-51
2021/01/17 09:54:52;;;;;;;31.13;8.83;;;;;;;-11.66;60.99;99489.91;1770056;79;21127;-50
2021/01/17 09:57:23;;;;;;;26.83;8.57;;;;;;;-11.61;61.09;99487.04;1775766;79;21194;-51
2021/01/17 09:59:52;;;;;;;24.13;9.03;;;;;;;-11.58;60.95;99491.05;1772938;79;21205;-51
2021/01/17 10:02:23;;;;;;;25.77;8.43;;;;;;;-11.52;60.91;99491.67;1770276;79;22260;-51
2021/01/17 10:04:51;;;;;;;42.37;14.57;;;;;;;-11.45;60.68;99494.94;1773740;79;21091;-50
2021/01/17 10:07:20;;;;;;;49.57;18.53;;;;;;;-11.54;60.47;99488.13;1744795;80;21179;-51
2021/01/17 10:09:50;;;;;;;23.70;7.53;;;;;;;-11.61;60.64;99483.55;1729716;80;22290;-50
2021/01/17 10:12:21;;;;;;;24.10;7.73;;;;;;;-11.57;60.83;99488.89;1737962;80;21651;-50
2021/01/17 10:14:49;;;;;;;23.03;8.27;;;;;;;-11.47;60.51;99490.09;1734600;80;22068;-52
2021/01/17 10:17:18;;;;;;;31.10;9.13;;;;;;;-11.45;60.43;99482.36;1723918;81;21158;-53
2021/01/17 10:19:47;;;;;;;22.13;8.37;;;;;;;-11.45;60.02;99486.27;1773466;79;21187;-52
2021/01/17 10:22:16;;;;;;;15.53;5.67;;;;;;;-11.60;60.33;99481.43;1776623;79;21159;-52
2021/01/17 10:24:44;;;;;;;18.83;5.13;;;;;;;-11.59;60.37;99484.09;1778894;79;21165;-51
2021/01/17 10:27:12;;;;;;;26.60;7.07;;;;;;;-11.58;60.08;99483.27;1774021;79;21208;-54
2021/01/17 10:29:41;;;;;;;19.40;6.87;;;;;;;-11.57;60.02;99478.50;1779014;79;21600;-53
2021/01/17 10:32:11;;;;;;;23.27;7.37;;;;;;;-11.56;59.92;99475.08;1778630;79;21997;-52
2021/01/17 10:34:44;;;;;;;19.70;6.23;;;;;;;-11.50;59.98;99477.03;1767671;79;21151;-51
2021/01/17 10:37:15;;;;;;;26.23;8.43;;;;;;;-11.45;59.90;99462.88;1776223;79;21484;-51
2021/01/17 10:39:44;;;;;;;26.43;7.63;;;;;;;-11.39;59.97;99460.48;1771068;79;21251;-52
2021/01/17 10:42:17;;;;;;;24.30;7.40;;;;;;;-11.28;59.90;99468.23;1771271;79;21218;-54
2021/01/17 10:45:04;;;;;;;21.93;6.87;;;;;;;-11.18;59.73;99459.50;1772511;79;21129;-51
2021/01/17 10:47:42;;;;;;;18.20;6.87;;;;;;;-11.07;59.43;99466.77;1771182;79;21652;-52
2021/01/17 10:50:15;;;;;;;17.33;6.57;;;;;;;-11.00;58.83;99463.52;1769875;79;21182;-53
2021/01/17 10:53:17;;;;;;;16.90;5.43;;;;;;;-11.00;58.78;99463.11;1767148;79;21154;-51
2021/01/17 10:55:54;;;;;;;22.97;6.83;;;;;;;-10.95;58.82;99458.04;1724979;79;22248;-52
2021/01/17 10:58:31;;;;;;;18.33;5.80;;;;;;;-10.92;58.58;99461.64;1763657;79;21146;-53
2021/01/17 11:00:59;;;;;;;35.27;11.33;;;;;;;-10.84;58.38;99456.67;1757762;79;21203;-54
2021/01/17 11:03:31;;;;;;;43.37;15.10;;;;;;;-10.83;58.36;99449.34;1768043;79;21864;-52
2021/01/17 11:06:15;;;;;;;26.27;9.87;;;;;;;-10.78;57.99;99459.04;1769272;79;21597;-53
2021/01/17 11:08:55;;;;;;;57.48;20.45;;;;;;;-10.73;57.64;99458.78;1769543;79;21210;-54
2021/01/17 11:11:25;;;;;;;30.00;11.43;;;;;;;-10.74;57.41;99452.23;1769065;79;21202;-51
2021/01/17 11:14:03;;;;;;;25.20;8.43;;;;;;;-10.75;57.23;99457.84;1771244;79;21198;-52
2021/01/17 11:16:49;;;;;;;15.00;5.20;;;;;;;-10.73;57.28;99456.60;1713268;81;21228;-52
2021/01/17 11:19:17;;;;;;;33.20;9.77;;;;;;;-10.73;57.30;99450.10;1770489;79;21645;-51
2021/01/17 11:21:45;;;;;;;25.83;8.73;;;;;;;-10.78;57.38;99449.94;1772300;79;21174;-53
2021/01/17 11:24:13;;;;;;;25.43;8.83;;;;;;;-10.78;57.26;99447.34;1775184;79;21230;-51
2021/01/17 11:26:41;;;;;;;25.23;7.83;;;;;;;-10.80;57.23;99449.00;1768523;79;21803;-51
2021/01/17 11:29:15;;;;;;;26.53;9.07;;;;;;;-10.81;57.16;99442.48;1770944;79;21035;-50
2021/01/17 11:31:45;;;;;;;25.88;9.20;;;;;;;-10.84;57.17;99446.27;1779640;79;22787;-51
2021/01/17 11:34:15;;;;;;;37.93;12.23;;;;;;;-10.86;57.13;99444.92;1778838;79;22352;-50
2021/01/17 11:36:43;;;;;;;27.43;10.17;;;;;;;-10.87;57.14;99441.85;1768960;79;21174;-52
2021/01/17 11:39:21;;;;;;;33.37;12.33;;;;;;;-10.88;57.31;99440.08;1768933;79;21213;-53
2021/01/17 11:41:48;;;;;;;31.27;12.20;;;;;;;-10.88;57.40;99444.40;1771859;79;21155;-54
2021/01/17 11:44:18;;;;;;;33.30;10.97;;;;;;;-10.85;57.33;99436.70;1779017;79;22456;-51
2021/01/17 11:46:48;;;;;;;35.10;12.60;;;;;;;-10.87;57.07;99432.75;1771762;79;21218;-51
2021/01/17 11:49:17;;;;;;;35.73;11.90;;;;;;;-11.04;57.16;99433.05;1772917;79;21113;-52
2021/01/17 11:51:44;;;;;;;34.27;12.27;;;;;;;-11.24;57.45;99432.44;1748229;79;21095;-54
2021/01/17 11:54:26;;;;;;;39.00;13.30;;;;;;;-11.37;57.65;99435.45;1770164;79;21520;-51
2021/01/17 11:57:12;;;;;;;29.70;10.53;;;;;;;-11.51;57.92;99424.20;1767607;79;21196;-52
2021/01/17 11:59:39;;;;;;;31.37;10.07;;;;;;;-11.55;58.15;99434.41;1766597;79;21162;-52
2021/01/17 12:02:20;;;;;;;34.10;9.90;;;;;;;-11.57;58.35;99433.51;1767569;79;21201;-53
2021/01/17 12:04:58;;;;;;;33.60;11.17;;;;;;;-11.54;58.49;99440.08;1772518;79;22726;-51